Time;durP1;ratioP1;P1;durP2;ratioP2;P2;SDS_P1;SDS_P2;PMS_P1;PMS_P2;Temp;Humidity;BMP_temperature;BMP_pressure;BME280_temperature;BME280_humidity;BME280_pressure;Samples;Min_cycle;Max_cycle;Signal;HPM_P1;HPM_P2
2021/05/27 00:01:56;;;;;;;13.52;11.00;;;;;;;17.66;100.00;96934.47;4910468;29;20557;-72
2021/05/27 00:04:21;;;;;;;13.27;10.02;;;;;;;17.16;100.00;96832.63;4910562;29;20220;-73
2021/05/27 00:06:46;;;;;;;14.90;10.27;;;;;;;17.82;100.00;96938.25;4908361;29;20506;-72
2021/05/27 00:09:12;;;;;;;14.00;9.77;;;;;;;17.81;100.00;96933.84;4909846;29;20032;-72
2021/05/27 00:11:37;;;;;;;10.55;9.45;;;;;;;17.47;100.00;96879.88;4909690;29;20466;-74
2021/05/27 00:14:03;;;;;;;17.48;9.35;;;;;;;16.97;100.00;96791.28;4908059;29;20667;-71
2021/05/27 00:16:31;;;;;;;10.23;9.13;;;;;;;17.87;100.00;96922.97;4909396;29;20118;-72
2021/05/27 00:18:56;;;;;;;14.32;10.02;;;;;;;17.59;99.42;96890.50;4909896;29;20059;-71
2021/05/27 00:21:22;;;;;;;10.80;9.60;;;;;;;17.47;99.35;96859.47;4939853;29;20075;-71
2021/05/27 00:23:47;;;;;;;11.38;9.60;;;;;;;17.81;99.69;96913.47;4910173;29;20059;-73
2021/05/27 00:26:13;;;;;;;13.27;10.70;;;;;;;17.77;99.26;96907.09;4909210;29;20123;-72
2021/05/27 00:28:39;;;;;;;12.20;9.70;;;;;;;17.35;99.37;96851.59;4907862;29;20036;-72
2021/05/27 00:31:05;;;;;;;11.68;10.27;;;;;;;17.77;98.98;96907.91;4900308;28;20147;-73
2021/05/27 00:33:30;;;;;;;14.77;10.73;;;;;;;17.11;97.92;96807.91;4939603;29;20064;-72
2021/05/27 00:35:56;;;;;;;13.95;9.35;;;;;;;17.86;97.74;96893.38;4908760;29;20107;-73
2021/05/27 00:38:21;;;;;;;13.98;8.82;;;;;;;17.83;97.25;96897.81;4909131;29;20040;-72
2021/05/27 00:40:47;;;;;;;11.32;9.18;;;;;;;17.73;98.15;96889.56;4909248;29;20192;-73
2021/05/27 00:43:12;;;;;;;14.88;9.13;;;;;;;17.73;99.06;96883.94;4923410;29;20043;-71
2021/05/27 00:45:38;;;;;;;11.95;9.52;;;;;;;17.80;98.10;96872.63;4908132;29;20509;-71
2021/05/27 00:48:04;;;;;;;16.20;10.40;;;;;;;17.83;98.34;96874.63;4907562;29;20044;-74
2021/05/27 00:50:29;;;;;;;23.35;14.00;;;;;;;17.73;98.07;96867.13;4907027;29;20067;-74
2021/05/27 00:52:56;;;;;;;22.77;13.75;;;;;;;17.67;98.67;96863.22;4909169;29;20071;-75
2021/05/27 00:55:24;;;;;;;17.33;11.85;;;;;;;17.77;98.17;96868.66;4907069;29;20513;-75
2021/05/27 00:58:22;;;;;;;14.57;11.07;;;;;;;17.68;97.34;96876.00;4939224;29;20040;-75
2021/05/27 01:00:48;;;;;;;15.27;11.43;;;;;;;17.29;100.00;96875.69;4923312;29;20491;-71
2021/05/27 01:03:13;;;;;;;16.73;10.20;;;;;;;17.54;98.59;96868.59;4923672;29;20071;-75
2021/05/27 01:05:39;;;;;;;17.02;10.98;;;;;;;17.00;100.00;96872.41;4906815;29;20044;-73
2021/05/27 01:08:05;;;;;;;15.43;11.82;;;;;;;16.54;100.00;96804.94;4909094;29;20036;-73
2021/05/27 01:10:31;;;;;;;15.13;11.88;;;;;;;17.04;100.00;96858.38;4908432;29;20489;-72
2021/05/27 01:12:56;;;;;;;16.30;11.63;;;;;;;17.14;100.00;96854.66;4907333;29;20032;-75
2021/05/27 01:15:32;;;;;;;18.50;12.18;;;;;;;16.96;100.00;96831.69;4908429;29;20042;-75
2021/05/27 01:18:10;;;;;;;14.52;10.82;;;;;;;17.21;100.00;96851.78;4907659;29;20040;-75
2021/05/27 01:20:37;;;;;;;12.88;10.05;;;;;;;16.74;100.00;96774.38;4908110;29;20036;-72
2021/05/27 01:23:03;;;;;;;19.10;11.35;;;;;;;17.02;99.94;96816.81;4908268;29;20048;-71
2021/05/27 01:25:29;;;;;;;13.82;10.93;;;;;;;17.08;100.00;96853.53;4908287;29;20797;-72
2021/05/27 01:27:54;;;;;;;14.25;11.27;;;;;;;17.22;100.00;96858.94;4907116;29;20435;-72
2021/05/27 01:30:21;;;;;;;12.75;10.07;;;;;;;16.82;100.00;96803.88;4906605;29;20048;-71
2021/05/27 01:32:46;;;;;;;13.68;10.18;;;;;;;17.30;100.00;96860.47;4908279;29;20060;-71
2021/05/27 01:35:20;;;;;;;11.18;9.77;;;;;;;17.27;99.81;96850.09;4906729;29;20575;-73
2021/05/27 01:37:46;;;;;;;11.82;9.68;;;;;;;17.11;99.30;96827.50;4909828;29;20528;-74
2021/05/27 01:40:23;;;;;;;13.88;10.30;;;;;;;17.21;99.42;96832.19;4908922;29;20032;-73
2021/05/27 01:42:50;;;;;;;11.32;9.73;;;;;;;17.36;97.98;96858.78;4907489;29;20419;-73
2021/05/27 01:45:16;;;;;;;12.88;9.20;;;;;;;17.23;97.11;96838.16;4908323;29;20055;-74
2021/05/27 01:47:42;;;;;;;15.07;9.60;;;;;;;17.28;97.29;96848.88;4908404;29;20421;-73
2021/05/27 01:50:10;;;;;;;16.30;10.15;;;;;;;16.92;97.65;96805.72;4908261;29;20165;-75
2021/05/27 01:52:35;;;;;;;16.52;11.10;;;;;;;17.19;98.52;96860.59;4908765;29;20040;-74
2021/05/27 01:55:01;;;;;;;12.82;10.55;;;;;;;17.11;99.31;96870.28;4906974;29;20043;-74
2021/05/27 01:57:27;;;;;;;14.88;11.73;;;;;;;16.62;99.88;96775.72;4907569;29;20063;-73
2021/05/27 01:59:52;;;;;;;15.57;10.57;;;;;;;16.51;100.00;96770.22;4908273;29;20502;-73
2021/05/27 02:02:17;;;;;;;13.50;9.32;;;;;;;16.36;99.13;96746.38;4906302;29;20083;-74
2021/05/27 02:04:43;;;;;;;15.63;10.32;;;;;;;17.01;99.15;96853.63;4906580;29;20426;-74
2021/05/27 02:07:14;;;;;;;14.25;10.00;;;;;;;15.98;98.74;96691.66;4907489;29;20103;-75
2021/05/27 02:09:40;;;;;;;12.10;9.48;;;;;;;16.30;99.06;96767.63;4907591;29;20487;-74
2021/05/27 02:12:06;;;;;;;12.57;9.82;;;;;;;16.73;98.32;96843.50;4906280;29;20048;-73
2021/05/27 02:14:32;;;;;;;16.63;10.80;;;;;;;16.85;98.17;96850.59;4908145;29;20582;-72
2021/05/27 02:16:57;;;;;;;12.10;9.65;;;;;;;16.83;98.76;96850.22;4937386;29;20498;-75
2021/05/27 02:19:23;;;;;;;15.60;10.35;;;;;;;16.53;98.00;96815.34;4907910;29;20043;-74
2021/05/27 02:21:50;;;;;;;13.05;10.18;;;;;;;16.10;99.22;96752.66;4905772;29;20040;-72
2021/05/27 02:24:16;;;;;;;12.90;10.65;;;;;;;16.72;99.96;96855.91;4907536;29;20044;-74
2021/05/27 02:26:41;;;;;;;14.02;10.50;;;;;;;13.43;99.35;96343.88;4907089;29;20039;-74
2021/05/27 02:29:07;;;;;;;13.65;10.00;;;;;;;16.33;99.02;96814.31;4905932;29;20048;-74
2021/05/27 02:31:32;;;;;;;13.88;10.32;;;;;;;16.68;100.00;96862.75;4921848;29;20039;-75
2021/05/27 02:33:58;;;;;;;14.90;10.77;;;;;;;16.12;100.00;96780.19;4907513;29;20123;-76
2021/05/27 02:36:24;;;;;;;13.93;10.85;;;;;;;16.74;99.15;96866.69;4905255;29;20119;-74
2021/05/27 02:38:51;;;;;;;13.30;10.30;;;;;;;16.75;99.46;96862.69;4907304;29;20051;-73
2021/05/27 02:41:17;;;;;;;13.27;10.93;;;;;;;16.73;99.68;96853.91;4937414;29;20180;-74
2021/05/27 02:43:43;;;;;;;14.98;9.98;;;;;;;16.25;100.00;96786.81;4906046;29;20458;-74
2021/05/27 02:46:08;;;;;;;16.60;11.70;;;;;;;16.16;99.52;96792.91;4906458;29;20040;-76
2021/05/27 02:48:34;;;;;;;13.77;10.20;;;;;;;16.63;99.82;96861.19;4909689;29;20147;-74
2021/05/27 02:51:01;;;;;;;11.82;9.75;;;;;;;16.74;98.28;96849.91;4907102;29;20107;-73
2021/05/27 02:53:26;;;;;;;14.85;12.30;;;;;;;16.29;99.64;96830.34;4906568;29;20228;-74
2021/05/27 02:55:52;;;;;;;16.45;12.25;;;;;;;15.75;100.00;96817.19;4937313;29;20043;-76
2021/05/27 02:58:18;;;;;;;14.85;11.85;;;;;;;16.17;100.00;96872.72;4907366;29;20095;-75
2021/05/27 03:00:44;;;;;;;17.42;11.85;;;;;;;16.09;100.00;96834.09;4921507;29;20036;-73
2021/05/27 03:03:10;;;;;;;16.27;12.65;;;;;;;15.89;100.00;96811.50;4907646;29;20119;-75
2021/05/27 03:05:35;;;;;;;23.58;15.05;;;;;;;15.92;100.00;96852.56;4908752;29;20452;-73
2021/05/27 03:08:00;;;;;;;19.60;12.75;;;;;;;15.91;100.00;96853.78;4908608;29;20039;-74
2021/05/27 03:10:26;;;;;;;18.55;12.40;;;;;;;15.96;100.00;96912.03;4911783;29;20032;-73
2021/05/27 03:12:52;;;;;;;16.25;11.95;;;;;;;15.59;100.00;96802.91;4909971;29;20504;-73
2021/05/27 03:15:18;;;;;;;13.98;12.35;;;;;;;16.11;100.00;96863.22;4909282;29;20036;-76
2021/05/27 03:17:44;;;;;;;19.10;12.45;;;;;;;15.91;100.00;96841.81;4910900;29;20082;-75
2021/05/27 03:20:10;;;;;;;19.15;13.57;;;;;;;15.70;100.00;96853.91;4910118;29;20111;-77
2021/05/27 03:22:35;;;;;;;18.52;13.27;;;;;;;15.56;100.00;96859.56;4909379;29;20427;-76
2021/05/27 03:25:01;;;;;;;38.35;15.85;;;;;;;15.02;100.00;96757.75;4910860;29;20032;-76
2021/05/27 03:27:27;;;;;;;20.65;15.10;;;;;;;15.60;100.00;96854.75;4910451;29;20043;-72
2021/05/27 03:29:52;;;;;;;20.02;14.32;;;;;;;15.96;100.00;96861.72;4909155;29;20039;-75
2021/05/27 03:32:18;;;;;;;21.00;14.85;;;;;;;16.26;100.00;96864.69;4908584;29;20080;-74
2021/05/27 03:34:43;;;;;;;19.63;14.27;;;;;;;16.25;100.00;96851.91;4910586;29;20036;-75
2021/05/27 03:37:09;;;;;;;15.10;12.13;;;;;;;16.57;100.00;96869.25;4910187;29;20068;-72
2021/05/27 03:39:35;;;;;;;15.20;11.68;;;;;;;16.51;100.00;96823.38;4910557;29;20024;-73
2021/05/27 03:42:00;;;;;;;13.50;10.10;;;;;;;16.92;97.64;96868.09;4909911;29;20062;-73
2021/05/27 03:44:26;;;;;;;11.90;9.48;;;;;;;16.93;96.61;96846.50;4910304;29;20164;-73
2021/05/27 03:46:51;;;;;;;14.23;10.38;;;;;;;16.67;95.65;96766.06;4908919;29;20051;-72
2021/05/27 03:49:17;;;;;;;12.75;9.32;;;;;;;17.38;94.02;96850.75;4910407;29;20044;-73
2021/05/27 03:51:42;;;;;;;17.75;9.68;;;;;;;17.12;93.08;96781.53;4908034;29;20032;-71
2021/05/27 03:54:08;;;;;;;16.58;11.65;;;;;;;17.49;92.54;96854.25;4910210;29;20072;-72
2021/05/27 03:56:34;;;;;;;14.65;10.70;;;;;;;16.92;92.70;96747.78;4909034;29;20522;-71
2021/05/27 04:01:44;;;;;;;17.30;11.65;;;;;;;17.75;92.00;96847.91;4910081;29;20046;-72
2021/05/27 04:07:10;;;;;;;17.65;11.48;;;;;;;17.61;91.36;96803.25;4910266;29;20075;-72
2021/05/27 04:09:38;;;;;;;21.08;12.25;;;;;;;17.98;90.08;96829.13;4909936;29;20028;-72
2021/05/27 04:15:20;;;;;;;17.10;12.00;;;;;;;17.84;91.49;96842.56;4910568;29;20042;-72
2021/05/27 04:17:34;;;;;;;18.20;13.27;;;;;;;17.69;92.90;96860.78;4909776;29;20527;-72
2021/05/27 04:20:04;;;;;;;22.80;14.55;;;;;;;17.45;94.77;96861.91;4909572;29;20036;-73
2021/05/27 04:22:30;;;;;;;25.48;15.52;;;;;;;16.94;93.81;96738.97;4940126;29;20024;-73
2021/05/27 04:24:55;;;;;;;22.05;14.07;;;;;;;17.81;93.08;96869.41;4908461;29;20582;-72
2021/05/27 04:27:21;;;;;;;19.10;13.88;;;;;;;17.59;92.18;96802.91;4909564;29;20043;-72
2021/05/27 04:29:46;;;;;;;19.92;13.00;;;;;;;18.07;91.09;96881.84;4909565;29;20044;-73
2021/05/27 04:34:55;;;;;;;18.13;14.60;;;;;;;18.05;90.10;96842.25;4909525;29;20383;-70
2021/05/27 04:37:21;;;;;;;21.48;16.05;;;;;;;18.24;89.03;96861.16;4908877;29;20032;-70
2021/05/27 04:39:46;;;;;;;20.15;15.43;;;;;;;18.25;89.31;96851.53;4909199;29;20032;-71
2021/05/27 04:42:12;;;;;;;21.60;16.25;;;;;;;18.04;90.01;96855.47;4907585;29;20119;-72
2021/05/27 04:44:37;;;;;;;27.90;17.90;;;;;;;17.09;98.12;96869.09;4909376;29;20032;-72
2021/05/27 04:47:03;;;;;;;24.25;16.90;;;;;;;16.70;96.18;96748.44;4907137;29;20036;-72
2021/05/27 04:49:28;;;;;;;29.52;18.00;;;;;;;17.26;94.45;96786.94;4907758;29;20047;-71
2021/05/27 04:51:54;;;;;;;23.15;16.35;;;;;;;17.36;93.54;96783.19;4908643;29;20035;-75
2021/05/27 04:54:20;;;;;;;28.88;17.38;;;;;;;17.46;92.57;96774.69;4907349;29;20032;-73
2021/05/27 04:56:58;;;;;;;37.22;22.45;;;;;;;16.96;97.70;96835.25;4907592;29;20047;-72
2021/05/27 04:59:23;;;;;;;40.05;25.75;;;;;;;16.66;100.00;96860.34;4924728;29;20036;-70
2021/05/27 05:01:49;;;;;;;34.83;22.42;;;;;;;17.05;100.00;96868.34;4908421;28;20103;-71
2021/05/27 05:04:14;;;;;;;37.65;24.10;;;;;;;17.09;100.00;96871.91;4908801;29;20397;-72
2021/05/27 05:06:40;;;;;;;36.47;24.33;;;;;;;16.84;100.00;96849.00;4906947;29;20066;-72
2021/05/27 05:09:05;;;;;;;30.35;20.02;;;;;;;17.36;99.02;96889.59;4908853;29;20038;-73
2021/05/27 05:11:31;;;;;;;27.40;19.08;;;;;;;17.20;94.81;96800.59;4908851;29;20111;-75
2021/05/27 05:13:57;;;;;;;28.98;18.83;;;;;;;17.90;94.93;96866.09;4908600;29;20052;-72
2021/05/27 05:16:22;;;;;;;33.83;21.63;;;;;;;17.23;97.87;96880.16;4906443;29;20079;-71
2021/05/27 05:18:48;;;;;;;33.53;23.27;;;;;;;16.63;100.00;96827.63;4908896;29;20123;-72
2021/05/27 05:21:13;;;;;;;32.05;23.17;;;;;;;16.50;100.00;96791.00;4906591;29;20032;-72
2021/05/27 05:23:39;;;;;;;29.77;21.10;;;;;;;16.98;99.71;96827.25;4922630;29;20431;-73
2021/05/27 05:26:05;;;;;;;33.85;22.02;;;;;;;16.71;100.00;96878.72;4908165;29;20047;-72
2021/05/27 05:28:30;;;;;;;29.30;22.13;;;;;;;16.68;100.00;96790.03;4908464;29;20048;-72
2021/05/27 05:30:56;;;;;;;36.00;24.38;;;;;;;16.58;100.00;96830.91;4907614;29;20039;-75
2021/05/27 05:33:21;;;;;;;34.83;24.42;;;;;;;17.07;100.00;96886.31;4908167;29;20532;-71
2021/05/27 05:35:47;;;;;;;35.03;22.38;;;;;;;16.11;100.00;96773.78;4908149;29;20074;-72
2021/05/27 05:38:12;;;;;;;32.50;22.75;;;;;;;16.85;100.00;96853.41;4908672;29;20036;-73
2021/05/27 05:40:38;;;;;;;32.67;23.67;;;;;;;16.65;100.00;96847.59;4908156;29;20078;-72
2021/05/27 05:43:03;;;;;;;36.83;23.20;;;;;;;17.24;99.48;96862.94;4906667;29;20434;-72
2021/05/27 05:45:29;;;;;;;33.55;22.45;;;;;;;16.70;96.97;96748.44;4905679;29;20096;-69
2021/05/27 05:47:56;;;;;;;30.90;20.20;;;;;;;17.91;96.71;96906.91;4902386;29;20527;-61
2021/05/27 05:53:08;;;;;;;28.92;21.27;;;;;;;18.59;89.90;96904.72;4908753;29;20047;-65
2021/05/27 05:55:34;;;;;;;30.73;21.42;;;;;;;18.71;88.90;96898.50;4904384;29;20040;-66
2021/05/27 05:58:00;;;;;;;28.98;19.98;;;;;;;18.83;88.04;96893.06;4892796;29;20571;-65
2021/05/27 06:00:26;;;;;;;33.42;22.42;;;;;;;18.86;88.45;96894.19;4891778;29;20115;-65
2021/05/27 06:02:51;;;;;;;29.65;23.35;;;;;;;18.15;91.21;96893.78;4890547;29;20051;-63
2021/05/27 06:05:16;;;;;;;31.63;21.88;;;;;;;17.90;89.22;96787.63;4902404;29;20123;-64
2021/05/27 06:07:42;;;;;;;30.83;22.38;;;;;;;17.97;87.66;96753.88;4903578;29;20043;-62
2021/05/27 06:10:08;;;;;;;33.25;24.10;;;;;;;18.20;90.08;96843.59;4889568;29;20124;-65
2021/05/27 06:12:33;;;;;;;37.08;26.38;;;;;;;18.05;88.58;96772.16;4936445;29;20338;-62
2021/05/27 06:14:59;;;;;;;39.60;25.70;;;;;;;19.22;86.16;96904.34;4938211;29;20044;-60
2021/05/27 06:17:24;;;;;;;31.73;24.33;;;;;;;19.39;85.08;96894.03;4905389;29;20036;-67
2021/05/27 06:19:50;;;;;;;33.95;25.33;;;;;;;19.55;83.42;96889.28;4898087;29;20467;-61
2021/05/27 06:22:15;;;;;;;31.90;24.15;;;;;;;18.17;83.96;96690.25;4888521;29;20515;-65
2021/05/27 06:24:40;;;;;;;36.40;25.48;;;;;;;19.46;83.31;96869.41;4906649;29;20032;-75
2021/05/27 06:27:06;;;;;;;34.20;24.77;;;;;;;19.67;83.45;96892.66;4915140;29;20547;-59
2021/05/27 06:29:31;;;;;;;32.63;24.17;;;;;;;19.47;82.23;96834.44;4888226;29;20492;-64
2021/05/27 06:31:57;;;;;;;31.55;23.02;;;;;;;19.66;80.11;96790.69;4908934;29;20066;-62
2021/05/27 06:34:22;;;;;;;36.50;22.38;;;;;;;19.63;79.67;96771.09;4937352;29;20032;-71
2021/05/27 06:36:48;;;;;;;33.33;24.45;;;;;;;20.47;78.69;96895.69;4905183;29;20043;-62
2021/05/27 06:39:13;;;;;;;29.15;21.88;;;;;;;20.07;78.79;96844.38;4921352;29;20091;-58
2021/05/27 06:41:38;;;;;;;31.17;22.13;;;;;;;20.46;79.50;96899.72;4906379;29;20067;-60
2021/05/27 06:44:04;;;;;;;31.23;23.45;;;;;;;20.31;78.39;96857.06;4910065;29;20040;-59
2021/05/27 06:46:30;;;;;;;28.52;22.27;;;;;;;20.71;77.46;96897.09;4925200;29;20150;-68
2021/05/27 06:48:56;;;;;;;32.22;23.33;;;;;;;20.16;80.30;96888.78;4929213;29;20463;-68
2021/05/27 06:51:22;;;;;;;28.58;21.63;;;;;;;20.78;78.63;96894.91;4941635;29;20047;-62
2021/05/27 06:53:47;;;;;;;28.98;21.33;;;;;;;21.31;76.14;96893.53;4906552;29;20048;-67
2021/05/27 06:56:13;;;;;;;23.27;19.20;;;;;;;21.50;73.43;96867.22;4910908;29;20475;-67
2021/05/27 06:58:38;;;;;;;24.05;19.67;;;;;;;22.19;71.09;96905.09;4927537;29;20048;-66
2021/05/27 07:01:04;;;;;;;27.00;18.30;;;;;;;22.23;70.50;96892.44;4892249;29;20501;-62
2021/05/27 07:03:29;;;;;;;21.67;16.60;;;;;;;22.63;68.83;96889.19;4902898;29;20051;-69
2021/05/27 07:05:57;;;;;;;21.30;17.00;;;;;;;21.72;68.67;96710.25;4900404;29;20045;-68
2021/05/27 07:08:22;;;;;;;17.50;13.88;;;;;;;23.16;66.58;96902.28;4899306;28;20071;-62
2021/05/27 07:10:48;;;;;;;16.88;14.40;;;;;;;22.83;65.32;96793.66;4922089;29;20042;-66
2021/05/27 07:13:13;;;;;;;18.60;14.20;;;;;;;23.63;62.55;96869.13;4894646;29;20042;-69
2021/05/27 07:15:39;;;;;;;18.00;13.55;;;;;;;23.76;60.72;96828.19;4905570;29;20044;-72
2021/05/27 07:18:05;;;;;;;19.60;14.55;;;;;;;24.36;61.14;96893.81;4923281;29;20040;-61
2021/05/27 07:20:30;;;;;;;22.00;16.38;;;;;;;24.01;62.22;96878.22;4909495;29;20036;-62
2021/05/27 07:22:57;;;;;;;19.92;14.63;;;;;;;23.39;61.50;96774.69;4911225;29;20036;-67
2021/05/27 07:25:24;;;;;;;21.85;14.93;;;;;;;24.42;61.15;96874.94;4925866;29;20040;-68
2021/05/27 07:27:51;;;;;;;21.90;15.18;;;;;;;24.36;60.31;96848.50;4911074;29;20115;-65
2021/05/27 07:30:18;;;;;;;21.00;16.15;;;;;;;24.85;59.53;96880.47;4910201;29;20663;-66
2021/05/27 07:32:44;;;;;;;19.85;13.77;;;;;;;24.14;59.89;96768.50;4910066;29;20802;-62
2021/05/27 07:35:10;;;;;;;26.52;14.60;;;;;;;24.96;59.40;96869.47;4907995;29;20497;-60
2021/05/27 07:37:35;;;;;;;16.35;12.27;;;;;;;25.22;57.74;96870.81;4908137;29;20470;-59
2021/05/27 07:40:01;;;;;;;17.38;13.00;;;;;;;23.81;61.76;96798.50;4909696;29;20044;-67
2021/05/27 07:42:26;;;;;;;19.42;14.05;;;;;;;24.36;61.82;96881.72;4920411;29;20103;-68
2021/05/27 07:44:52;;;;;;;17.48;13.50;;;;;;;24.11;60.90;96871.34;4921898;29;20047;-64
2021/05/27 07:47:17;;;;;;;15.50;12.57;;;;;;;24.26;61.13;96878.03;4891199;29;20056;-62
2021/05/27 07:49:43;;;;;;;14.02;12.52;;;;;;;24.24;61.26;96877.72;4905718;29;20044;-65
2021/05/27 07:52:08;;;;;;;16.20;12.93;;;;;;;22.77;60.17;96586.50;4925638;29;20047;-66
2021/05/27 07:54:34;;;;;;;13.85;12.35;;;;;;;24.82;59.89;96870.09;4908172;29;20172;-63
2021/05/27 07:56:59;;;;;;;11.27;9.90;;;;;;;24.77;56.95;96828.19;4908066;29;20084;-66
2021/05/27 07:59:25;;;;;;;16.20;10.32;;;;;;;25.29;56.02;96825.09;4908252;29;20047;-70
2021/05/27 08:01:50;;;;;;;15.98;11.32;;;;;;;25.67;57.18;96877.75;4924045;29;20036;-71
2021/05/27 08:04:16;;;;;;;11.25;10.15;;;;;;;25.81;54.80;96872.25;4908356;29;20032;-72
2021/05/27 08:06:41;;;;;;;11.38;10.00;;;;;;;25.63;54.76;96871.44;4904449;29;20029;-59
2021/05/27 08:09:07;;;;;;;10.85;9.20;;;;;;;24.49;56.79;96835.03;4919713;29;20043;-65
2021/05/27 08:11:38;;;;;;;13.68;11.90;;;;;;;23.88;61.41;96858.44;4910249;29;20040;-68
2021/05/27 08:14:04;;;;;;;14.27;9.70;;;;;;;23.42;60.75;96762.47;4892292;29;20032;-63
2021/05/27 08:16:29;;;;;;;18.55;10.25;;;;;;;24.14;60.54;96870.41;4890900;29;20048;-72
2021/05/27 08:18:54;;;;;;;12.93;10.98;;;;;;;23.94;59.53;96799.22;4906113;29;20101;-70
2021/05/27 08:21:20;;;;;;;10.50;9.25;;;;;;;23.28;60.84;96785.63;4907592;29;20150;-61
2021/05/27 08:23:46;;;;;;;21.88;15.90;;;;;;;24.24;60.57;96879.75;4906397;29;20063;-58
2021/05/27 08:26:12;;;;;;;13.73;10.68;;;;;;;24.59;58.60;96873.47;4899367;29;20040;-61
2021/05/27 08:28:37;;;;;;;10.60;9.18;;;;;;;24.80;56.49;96875.44;4890347;29;20116;-72
2021/05/27 08:31:03;;;;;;;14.73;10.63;;;;;;;23.83;58.12;96787.53;4908840;29;20127;-60
2021/05/27 08:33:30;;;;;;;13.75;10.65;;;;;;;24.11;58.45;96882.66;4909574;29;20071;-61
2021/05/27 08:35:55;;;;;;;12.43;10.23;;;;;;;24.48;56.42;96813.63;4908393;29;20056;-70
2021/05/27 08:38:21;;;;;;;11.38;8.48;;;;;;;24.72;55.28;96868.47;4901080;29;20044;-72
2021/05/27 08:40:47;;;;;;;13.13;8.93;;;;;;;24.91;54.87;96887.09;4897477;29;20048;-65
2021/05/27 08:43:13;;;;;;;13.23;9.00;;;;;;;25.00;54.72;96877.84;4938215;29;20036;-69
2021/05/27 08:45:41;;;;;;;11.30;10.15;;;;;;;24.09;56.25;96822.88;4889641;29;20092;-62
2021/05/27 08:48:11;;;;;;;10.68;8.98;;;;;;;24.68;56.07;96896.19;4890468;29;20039;-64
2021/05/27 08:50:43;;;;;;;21.92;10.05;;;;;;;24.50;58.35;96893.22;4904154;29;20052;-69
2021/05/27 08:53:08;;;;;;;13.68;10.65;;;;;;;24.22;58.79;96900.03;4890412;29;20029;-70
2021/05/27 08:55:34;;;;;;;10.95;9.30;;;;;;;23.95;58.82;96970.56;4904119;29;20145;-68
2021/05/27 08:58:00;;;;;;;11.63;9.68;;;;;;;23.98;58.83;96901.75;4908298;29;20435;-66
2021/05/27 09:00:25;;;;;;;12.05;9.93;;;;;;;23.64;59.78;96894.13;4938878;29;20043;-65
2021/05/27 09:03:01;;;;;;;13.65;9.55;;;;;;;21.76;62.73;96699.72;4907294;29;20536;-69
2021/05/27 09:05:30;;;;;;;12.32;10.68;;;;;;;21.30;65.94;96728.50;4906167;29;20044;-68
2021/05/27 09:07:56;;;;;;;15.30;12.32;;;;;;;22.43;68.16;96890.19;4908384;29;20091;-69
2021/05/27 09:10:47;;;;;;;13.38;10.25;;;;;;;22.44;67.79;96869.19;4906977;29;20048;-62
2021/05/27 09:13:15;;;;;;;20.23;16.25;;;;;;;22.69;69.57;96859.13;4908789;29;20043;-69
2021/05/27 09:15:42;;;;;;;15.55;12.95;;;;;;;23.03;65.96;96881.78;4908283;29;20046;-70
2021/05/27 09:18:07;;;;;;;14.45;11.27;;;;;;;23.37;63.08;96878.97;4906837;29;20451;-63
2021/05/27 09:20:34;;;;;;;13.05;10.45;;;;;;;22.91;62.10;96871.28;4908607;29;20400;-68
2021/05/27 09:23:20;;;;;;;12.60;8.73;;;;;;;22.98;62.69;96866.19;4907477;29;20036;-63
2021/05/27 09:25:50;;;;;;;11.55;8.13;;;;;;;22.96;59.45;96809.34;4908488;29;20059;-62
2021/05/27 09:28:27;;;;;;;10.48;9.48;;;;;;;23.10;61.05;96844.78;4909030;29;20411;-68
2021/05/27 09:30:55;;;;;;;14.38;9.73;;;;;;;22.85;62.29;96808.13;4908317;29;20480;-63
2021/05/27 09:33:30;;;;;;;12.23;8.60;;;;;;;22.79;64.43;96804.31;4908239;29;20055;-63
2021/05/27 09:36:05;;;;;;;15.27;9.45;;;;;;;22.70;64.65;96801.41;4908070;29;20058;-63
2021/05/27 09:38:32;;;;;;;16.17;8.93;;;;;;;22.29;67.08;96814.44;4908255;29;20069;-72
2021/05/27 09:40:58;;;;;;;11.30;8.75;;;;;;;21.97;71.19;96834.41;4916951;29;20491;-60
2021/05/27 09:43:26;;;;;;;9.13;8.07;;;;;;;21.86;72.52;96879.06;4927582;29;20031;-60
2021/05/27 09:46:04;;;;;;;10.50;8.98;;;;;;;22.07;72.71;96901.00;4926485;29;20040;-60
2021/05/27 09:48:30;;;;;;;9.60;7.68;;;;;;;22.03;68.97;96900.31;4910636;29;20036;-61
2021/05/27 09:50:58;;;;;;;5.38;4.20;;;;;;;21.72;54.58;96811.00;4897774;29;20123;-60
2021/05/27 09:53:26;;;;;;;6.32;5.65;;;;;;;22.16;57.19;96813.63;4906183;29;20036;-71
2021/05/27 09:55:53;;;;;;;8.13;4.95;;;;;;;22.15;53.61;96783.84;4897410;29;20081;-69
2021/05/27 09:58:19;;;;;;;4.70;4.25;;;;;;;23.12;53.60;96879.84;4923710;29;20086;-63
2021/05/27 10:00:47;;;;;;;4.50;3.90;;;;;;;23.91;49.23;96885.03;4907076;29;20096;-59
2021/05/27 10:03:27;;;;;;;13.30;8.23;;;;;;;23.99;51.10;96875.06;4903982;29;20036;-68
2021/05/27 10:05:54;;;;;;;16.15;9.45;;;;;;;24.33;49.66;96874.16;4890087;29;20044;-74
2021/05/27 10:08:20;;;;;;;11.30;7.45;;;;;;;22.81;49.76;96638.78;4893189;29;20060;-74
2021/05/27 10:10:47;;;;;;;4.95;4.47;;;;;;;24.68;47.69;96867.03;4917807;29;20590;-61
2021/05/27 10:13:15;;;;;;;4.10;3.53;;;;;;;24.87;44.84;96866.63;4914256;29;20042;-61
2021/05/27 10:15:44;;;;;;;5.53;4.20;;;;;;;25.10;45.03;96857.53;4907516;29;20108;-64
2021/05/27 10:18:15;;;;;;;4.75;4.25;;;;;;;25.00;45.32;96864.47;4921777;29;20071;-73
2021/05/27 10:20:41;;;;;;;3.85;3.38;;;;;;;25.09;44.14;96844.63;4893221;29;20052;-64
2021/05/27 10:23:07;;;;;;;4.72;4.25;;;;;;;25.32;43.37;96838.31;4907242;29;20032;-59
2021/05/27 10:25:33;;;;;;;7.18;4.80;;;;;;;24.91;41.29;96798.47;4907042;29;20063;-69
2021/05/27 10:28:02;;;;;;;5.82;4.32;;;;;;;25.40;41.99;96841.69;4908292;29;20102;-64
2021/05/27 10:30:27;;;;;;;4.20;3.80;;;;;;;25.03;40.57;96814.53;4891088;29;20100;-62
2021/05/27 10:33:01;;;;;;;5.68;3.92;;;;;;;25.73;41.37;96875.88;4903655;29;20055;-62
2021/05/27 10:35:45;;;;;;;;;;;;;;;26.05;41.09;96875.22;4891672;29;20051;-62
2021/05/27 10:38:11;;;;;;;4.53;4.00;;;;;;;26.09;41.13;96870.16;4897856;29;19950;-60
2021/05/27 10:40:37;;;;;;;5.43;4.78;;;;;;;26.17;40.95;96860.03;4936922;29;20036;-74
2021/05/27 10:43:12;;;;;;;9.05;6.78;;;;;;;25.47;40.74;96763.97;4906813;29;20039;-71
2021/05/27 10:45:56;;;;;;;7.32;5.43;;;;;;;25.26;42.84;96865.75;4906674;29;20797;-62
2021/05/27 10:48:23;;;;;;;12.63;8.65;;;;;;;24.68;43.91;96850.84;4897774;29;20052;-68
2021/05/27 10:53:33;;;;;;;9.63;6.13;;;;;;;23.77;45.81;96834.66;4919930;29;20107;-62
2021/05/27 10:55:59;;;;;;;30.65;7.35;;;;;;;23.71;45.01;96768.63;4917800;29;20044;-69
2021/05/27 10:59:04;;;;;;;7.45;5.03;;;;;;;23.82;45.18;96798.06;4899432;29;20123;-72
2021/05/27 11:01:33;;;;;;;6.40;5.32;;;;;;;23.83;46.63;96813.00;4896603;29;20079;-62
2021/05/27 11:04:30;;;;;;;9.07;4.97;;;;;;;24.10;43.90;96830.16;4889867;29;20040;-61
2021/05/27 11:07:15;;;;;;;6.90;4.57;;;;;;;24.67;39.59;96840.78;4898178;29;20076;-70
2021/05/27 11:09:40;;;;;;;5.30;3.83;;;;;;;25.11;39.28;96844.16;4930556;29;20032;-69
2021/05/27 11:12:16;;;;;;;4.57;3.78;;;;;;;25.65;38.86;96834.88;4915611;29;20059;-60
2021/05/27 11:14:45;;;;;;;4.32;3.83;;;;;;;26.08;37.71;96828.84;4888519;29;20041;-68
2021/05/27 11:17:19;;;;;;;4.68;4.28;;;;;;;25.80;39.09;96822.41;4888137;29;20570;-70
2021/05/27 11:25:24;;;;;;;6.55;5.32;;;;;;;25.98;39.89;96824.41;4888640;29;20051;-61
2021/05/27 11:28:11;;;;;;;4.97;4.22;;;;;;;26.14;40.64;96816.34;4918307;29;20047;-68
2021/05/27 11:30:40;;;;;;;4.43;3.90;;;;;;;25.75;39.10;96805.25;4900486;29;20059;-66
2021/05/27 11:33:11;;;;;;;7.82;6.03;;;;;;;25.09;40.30;96810.59;4921149;29;20052;-70
2021/05/27 11:35:42;;;;;;;9.18;5.07;;;;;;;25.39;40.99;96802.47;4924102;29;20044;-61
2021/05/27 11:38:37;;;;;;;5.90;5.30;;;;;;;25.86;40.04;96789.25;4907757;29;20032;-63
2021/05/27 11:41:12;;;;;;;5.75;5.03;;;;;;;24.98;41.73;96704.63;4906662;29;20036;-60
2021/05/27 11:43:40;;;;;;;5.15;4.63;;;;;;;25.27;42.63;96782.25;4911560;29;20575;-71